HAZ7534 VTSP-ZSPD
Flight info
| Callsign | HAZ7534 |
|---|---|
| Flight time | N/A |
| Altitude | 33000 |
| Route | ONETI1B ONETI R575 PAPRA/K0869F350 A1 IKELA/N0467F350 DCT MORTU DCT NOBAD DCT SANKU/N0466F360 DCT SOUSA/N0466F350 V601 DOTMI/K0861S1070 A470 LJG B221 SHZ W58 BK BK91A |
| Aircraft | A321/M-SDE3FGHIRWY/LB1 |
Departure
| Time | 2026-05-08 08:42 |
|---|---|
| Airport | Phuket International Airport (VTSP) |
Arrival
| Time | N/A |
|---|---|
| Airport | Shanghai Pudong International Airport (ZSPD) |
| Time | Latitude | Longitude | Altitude | Speed | Heading |
|---|---|---|---|---|---|
| 2026-05-08 08:19 | 8.10989 | 98.30684 | 28 ft | 0 kts | 174° |
| 2026-05-08 08:27 | 8.11013 | 98.30682 | 28 ft | 4 kts | 175° |
| 2026-05-08 08:28 | 8.11040 | 98.30679 | 28 ft | 4 kts | 166° |
| 2026-05-08 08:28 | 8.11061 | 98.30669 | 28 ft | 4 kts | 111° |
| 2026-05-08 08:28 | 8.11062 | 98.30656 | 28 ft | 4 kts | 84° |
| 2026-05-08 08:28 | 8.11059 | 98.30624 | 28 ft | 1 kts | 84° |
| 2026-05-08 08:33 | 8.11062 | 98.30652 | 28 ft | 8 kts | 84° |
| 2026-05-08 08:33 | 8.11069 | 98.30727 | 28 ft | 15 kts | 84° |
| 2026-05-08 08:33 | 8.11081 | 98.30854 | 29 ft | 21 kts | 84° |
| 2026-05-08 08:33 | 8.11117 | 98.30983 | 29 ft | 17 kts | 70° |
| 2026-05-08 08:34 | 8.11131 | 98.31095 | 30 ft | 15 kts | 84° |
| 2026-05-08 08:34 | 8.11141 | 98.31193 | 31 ft | 13 kts | 84° |
| 2026-05-08 08:34 | 8.11149 | 98.31273 | 32 ft | 10 kts | 84° |
| 2026-05-08 08:34 | 8.11154 | 98.31331 | 33 ft | 7 kts | 84° |
| 2026-05-08 08:35 | 8.11158 | 98.31373 | 34 ft | 5 kts | 84° |
| 2026-05-08 08:35 | 8.11161 | 98.31399 | 35 ft | 3 kts | 84° |
| 2026-05-08 08:35 | 8.11163 | 98.31424 | 35 ft | 5 kts | 84° |
| 2026-05-08 08:35 | 8.11167 | 98.31471 | 37 ft | 9 kts | 84° |
| 2026-05-08 08:36 | 8.11175 | 98.31554 | 40 ft | 15 kts | 84° |
| 2026-05-08 08:36 | 8.11186 | 98.31678 | 45 ft | 21 kts | 84° |
| 2026-05-08 08:36 | 8.11200 | 98.31831 | 52 ft | 20 kts | 84° |
| 2026-05-08 08:36 | 8.11213 | 98.31952 | 57 ft | 15 kts | 84° |
| 2026-05-08 08:37 | 8.11222 | 98.32042 | 61 ft | 10 kts | 85° |
| 2026-05-08 08:37 | 8.11226 | 98.32097 | 63 ft | 7 kts | 85° |
| 2026-05-08 08:37 | 8.11231 | 98.32161 | 66 ft | 12 kts | 85° |
| 2026-05-08 08:37 | 8.11240 | 98.32261 | 71 ft | 17 kts | 84° |
| 2026-05-08 08:38 | 8.11254 | 98.32397 | 72 ft | 22 kts | 85° |
| 2026-05-08 08:38 | 8.11269 | 98.32572 | 81 ft | 26 kts | 85° |
| 2026-05-08 08:38 | 8.11286 | 98.32740 | 84 ft | 23 kts | 85° |
| 2026-05-08 08:38 | 8.11299 | 98.32884 | 88 ft | 19 kts | 84° |
| 2026-05-08 08:39 | 8.11310 | 98.33003 | 92 ft | 15 kts | 85° |
| 2026-05-08 08:39 | 8.11324 | 98.33086 | 96 ft | 10 kts | 63° |
| 2026-05-08 08:39 | 8.11363 | 98.33120 | 100 ft | 6 kts | 18° |
| 2026-05-08 08:39 | 8.11396 | 98.33124 | 98 ft | 4 kts | 2° |
| 2026-05-08 08:40 | 8.11417 | 98.33121 | 97 ft | 3 kts | 352° |
| 2026-05-08 08:40 | 8.11433 | 98.33119 | 96 ft | 3 kts | 352° |
| 2026-05-08 08:40 | 8.11451 | 98.33110 | 97 ft | 4 kts | 314° |
| 2026-05-08 08:40 | 8.11452 | 98.33079 | 96 ft | 0 kts | 263° |
| 2026-05-08 08:41 | 8.11452 | 98.33077 | 96 ft | 6 kts | 264° |
| 2026-05-08 08:41 | 8.11425 | 98.32783 | 85 ft | 75 kts | 265° |
| 2026-05-08 08:41 | 8.11358 | 98.32062 | 62 ft | 130 kts | 264° |
| 2026-05-08 08:41 | 8.11263 | 98.31055 | 62 ft | 166 kts | 265° |
| 2026-05-08 08:42 | 8.11165 | 98.29881 | 701 ft | 161 kts | 264° |
| 2026-05-08 08:42 | 8.11051 | 98.28748 | 1203 ft | 163 kts | 264° |
| 2026-05-08 08:42 | 8.10934 | 98.27610 | 1710 ft | 165 kts | 264° |
| 2026-05-08 08:42 | 8.10813 | 98.26418 | 1969 ft | 179 kts | 264° |
| 2026-05-08 08:43 | 8.10680 | 98.25100 | 2093 ft | 198 kts | 264° |
| 2026-05-08 08:43 | 8.10533 | 98.23655 | 2237 ft | 215 kts | 264° |
| 2026-05-08 08:43 | 8.10375 | 98.22100 | 2371 ft | 232 kts | 264° |
| 2026-05-08 08:43 | 8.10206 | 98.20412 | 2474 ft | 255 kts | 264° |
| 2026-05-08 08:44 | 8.10334 | 98.18577 | 2788 ft | 269 kts | 293° |
| 2026-05-08 08:44 | 8.11449 | 98.17101 | 3324 ft | 270 kts | 328° |
| 2026-05-08 08:44 | 8.13220 | 98.16517 | 3907 ft | 270 kts | 2° |
| 2026-05-08 08:44 | 8.15074 | 98.16877 | 4525 ft | 271 kts | 18° |
| 2026-05-08 08:45 | 8.16867 | 98.17430 | 5134 ft | 274 kts | 18° |
| 2026-05-08 08:45 | 8.18716 | 98.18004 | 5757 ft | 277 kts | 18° |
| 2026-05-08 08:45 | 8.20579 | 98.18584 | 6365 ft | 280 kts | 18° |
| 2026-05-08 08:45 | 8.22427 | 98.19147 | 6940 ft | 283 kts | 15° |
| 2026-05-08 08:46 | 8.24414 | 98.19502 | 7512 ft | 287 kts | 7° |
| 2026-05-08 08:46 | 8.26373 | 98.19671 | 8069 ft | 290 kts | 5° |
| 2026-05-08 08:46 | 8.28392 | 98.19806 | 8634 ft | 292 kts | 10° |
| 2026-05-08 08:46 | 8.30303 | 98.20466 | 9171 ft | 292 kts | 33° |
| 2026-05-08 08:47 | 8.31751 | 98.21873 | 9695 ft | 292 kts | 59° |
| 2026-05-08 08:47 | 8.32475 | 98.23794 | 10170 ft | 294 kts | 82° |
| 2026-05-08 08:47 | 8.32629 | 98.25181 | 10296 ft | 305 kts | 85° |
| 2026-05-08 08:47 | 8.32901 | 98.28185 | 10461 ft | 328 kts | 85° |
| 2026-05-08 08:48 | 8.33103 | 98.30513 | 10576 ft | 344 kts | 85° |
| 2026-05-08 08:48 | 8.33319 | 98.32947 | 10690 ft | 360 kts | 85° |
| 2026-05-08 08:48 | 8.33545 | 98.35416 | 10807 ft | 373 kts | 85° |
| 2026-05-08 08:48 | 8.33803 | 98.38187 | 11023 ft | 384 kts | 85° |
| 2026-05-08 08:49 | 8.34056 | 98.40875 | 11423 ft | 388 kts | 85° |
| 2026-05-08 08:49 | 8.34311 | 98.43569 | 11854 ft | 391 kts | 85° |
| 2026-05-08 08:49 | 8.34568 | 98.46342 | 12299 ft | 393 kts | 86° |
| 2026-05-08 08:49 | 8.34514 | 98.49092 | 12708 ft | 395 kts | 97° |
| 2026-05-08 08:50 | 8.34085 | 98.51834 | 13149 ft | 398 kts | 100° |
| 2026-05-08 08:50 | 8.33633 | 98.54596 | 13612 ft | 400 kts | 100° |
| 2026-05-08 08:50 | 8.33335 | 98.56438 | 13866 ft | 401 kts | 99° |
| 2026-05-08 08:50 | 8.32884 | 98.59231 | 14218 ft | 403 kts | 99° |
| 2026-05-08 08:51 | 8.32428 | 98.62059 | 14568 ft | 405 kts | 99° |
| 2026-05-08 08:51 | 8.31980 | 98.64855 | 14912 ft | 407 kts | 99° |
| 2026-05-08 08:51 | 8.31524 | 98.67690 | 15258 ft | 409 kts | 99° |
| 2026-05-08 08:51 | 8.31065 | 98.70533 | 15595 ft | 411 kts | 100° |
| 2026-05-08 08:52 | 8.30603 | 98.73393 | 15926 ft | 413 kts | 99° |
| 2026-05-08 08:52 | 8.30415 | 98.76291 | 16244 ft | 416 kts | 89° |
| 2026-05-08 08:52 | 8.30769 | 98.79193 | 16563 ft | 419 kts | 78° |
| 2026-05-08 08:52 | 8.31673 | 98.82039 | 16871 ft | 422 kts | 69° |
| 2026-05-08 08:53 | 8.32770 | 98.84785 | 17187 ft | 424 kts | 69° |
| 2026-05-08 08:53 | 8.33871 | 98.87559 | 17490 ft | 426 kts | 69° |
| 2026-05-08 08:53 | 8.34969 | 98.90341 | 17797 ft | 428 kts | 70° |
| 2026-05-08 08:53 | 8.36057 | 98.93111 | 18085 ft | 430 kts | 70° |
| 2026-05-08 08:54 | 8.37174 | 98.95961 | 18346 ft | 432 kts | 70° |
| 2026-05-08 08:54 | 8.38296 | 98.98816 | 18605 ft | 433 kts | 70° |
| 2026-05-08 08:54 | 8.39396 | 99.01614 | 18858 ft | 435 kts | 70° |
| 2026-05-08 08:54 | 8.40509 | 99.04446 | 19115 ft | 437 kts | 70° |
| 2026-05-08 08:55 | 8.41634 | 99.07304 | 19382 ft | 438 kts | 69° |
| 2026-05-08 08:55 | 8.42770 | 99.10187 | 19643 ft | 440 kts | 69° |
| 2026-05-08 08:55 | 8.43907 | 99.13074 | 19912 ft | 441 kts | 69° |
| 2026-05-08 08:55 | 8.45186 | 99.16323 | 20193 ft | 443 kts | 69° |
| 2026-05-08 08:56 | 8.46227 | 99.18967 | 20416 ft | 444 kts | 69° |
| 2026-05-08 08:56 | 8.47367 | 99.21862 | 20656 ft | 446 kts | 69° |
| 2026-05-08 08:56 | 8.48526 | 99.24809 | 20909 ft | 448 kts | 69° |
| 2026-05-08 08:56 | 8.49662 | 99.27697 | 21153 ft | 449 kts | 69° |
| 2026-05-08 08:57 | 8.50816 | 99.30639 | 21380 ft | 451 kts | 69° |
| 2026-05-08 08:57 | 8.51973 | 99.33591 | 21614 ft | 453 kts | 69° |
| 2026-05-08 08:57 | 8.53128 | 99.36543 | 21840 ft | 454 kts | 69° |
| 2026-05-08 08:57 | 8.54298 | 99.39533 | 22073 ft | 456 kts | 69° |
| 2026-05-08 08:58 | 8.55497 | 99.42496 | 22291 ft | 458 kts | 66° |
| 2026-05-08 08:58 | 8.57099 | 99.45293 | 22505 ft | 461 kts | 56° |
| 2026-05-08 08:58 | 8.59169 | 99.47781 | 22713 ft | 465 kts | 46° |
| 2026-05-08 08:58 | 8.61586 | 99.49841 | 22887 ft | 468 kts | 36° |
| 2026-05-08 08:59 | 8.64424 | 99.51617 | 23080 ft | 471 kts | 32° |
| 2026-05-08 08:59 | 8.67260 | 99.53320 | 23257 ft | 473 kts | 32° |
| 2026-05-08 08:59 | 8.70079 | 99.55017 | 23452 ft | 475 kts | 32° |
| 2026-05-08 08:59 | 8.72948 | 99.56747 | 23608 ft | 476 kts | 32° |
| 2026-05-08 09:00 | 8.75779 | 99.58453 | 23771 ft | 477 kts | 32° |
| 2026-05-08 09:00 | 8.78630 | 99.60172 | 23937 ft | 478 kts | 32° |
| 2026-05-08 09:00 | 8.81483 | 99.61891 | 24090 ft | 479 kts | 32° |
| 2026-05-08 09:00 | 8.84372 | 99.63633 | 24261 ft | 480 kts | 32° |
| 2026-05-08 09:01 | 8.87238 | 99.65361 | 24416 ft | 481 kts | 32° |
| 2026-05-08 09:01 | 8.90093 | 99.67081 | 24583 ft | 482 kts | 32° |
| 2026-05-08 09:01 | 8.92986 | 99.68824 | 24731 ft | 483 kts | 32° |
| 2026-05-08 09:01 | 8.95875 | 99.70567 | 24900 ft | 484 kts | 32° |
| 2026-05-08 09:02 | 8.98810 | 99.72341 | 25054 ft | 486 kts | 32° |
| 2026-05-08 09:02 | 9.01681 | 99.74078 | 25215 ft | 487 kts | 32° |
| 2026-05-08 09:02 | 9.04578 | 99.75832 | 25371 ft | 488 kts | 32° |
| 2026-05-08 09:02 | 9.07494 | 99.77600 | 25532 ft | 489 kts | 32° |
| 2026-05-08 09:03 | 9.10423 | 99.79374 | 25682 ft | 490 kts | 32° |
| 2026-05-08 09:03 | 9.13346 | 99.81140 | 25894 ft | 489 kts | 32° |
| 2026-05-08 09:03 | 9.16267 | 99.82904 | 26102 ft | 488 kts | 32° |
| 2026-05-08 09:03 | 9.19192 | 99.84671 | 26312 ft | 488 kts | 32° |
| 2026-05-08 09:04 | 9.22085 | 99.86417 | 26513 ft | 487 kts | 32° |
| 2026-05-08 09:04 | 9.24997 | 99.88176 | 26718 ft | 487 kts | 32° |
| 2026-05-08 09:04 | 9.27917 | 99.89941 | 26929 ft | 487 kts | 32° |
| 2026-05-08 09:04 | 9.30817 | 99.91693 | 27135 ft | 486 kts | 32° |
| 2026-05-08 09:05 | 9.33726 | 99.93450 | 27326 ft | 486 kts | 32° |
| 2026-05-08 09:05 | 9.36631 | 99.95208 | 27536 ft | 486 kts | 32° |
| 2026-05-08 09:05 | 9.39535 | 99.96969 | 27737 ft | 486 kts | 32° |
| 2026-05-08 09:05 | 9.42410 | 99.98716 | 27940 ft | 485 kts | 32° |
| 2026-05-08 09:06 | 9.45323 | 100.00485 | 28144 ft | 485 kts | 31° |
| 2026-05-08 09:06 | 9.48213 | 100.02237 | 28346 ft | 485 kts | 32° |
| 2026-05-08 09:06 | 9.51000 | 100.04167 | 28562 ft | 483 kts | 40° |
| 2026-05-08 09:06 | 9.53403 | 100.06516 | 28735 ft | 482 kts | 50° |
| 2026-05-08 09:07 | 9.55386 | 100.09237 | 28935 ft | 480 kts | 60° |
| 2026-05-08 09:07 | 9.56898 | 100.12232 | 29104 ft | 479 kts | 69° |
| 2026-05-08 09:07 | 9.58066 | 100.15406 | 29293 ft | 478 kts | 71° |
| 2026-05-08 09:07 | 9.59212 | 100.18575 | 29480 ft | 478 kts | 70° |
| 2026-05-08 09:08 | 9.60378 | 100.21785 | 29663 ft | 478 kts | 71° |
| 2026-05-08 09:08 | 9.61516 | 100.24923 | 29822 ft | 479 kts | 71° |
| 2026-05-08 09:08 | 9.62664 | 100.28092 | 29975 ft | 479 kts | 71° |
| 2026-05-08 09:08 | 9.63796 | 100.31213 | 30129 ft | 478 kts | 70° |
| 2026-05-08 09:09 | 9.64961 | 100.34415 | 30300 ft | 478 kts | 70° |
| 2026-05-08 09:09 | 9.66108 | 100.37574 | 30483 ft | 477 kts | 70° |
| 2026-05-08 09:09 | 9.67248 | 100.40720 | 30664 ft | 476 kts | 71° |
| 2026-05-08 09:09 | 9.68385 | 100.43869 | 30819 ft | 476 kts | 70° |
| 2026-05-08 09:10 | 9.69554 | 100.47015 | 30975 ft | 477 kts | 66° |
| 2026-05-08 09:10 | 9.71093 | 100.49983 | 31149 ft | 477 kts | 58° |
| 2026-05-08 09:10 | 9.73067 | 100.52679 | 31326 ft | 477 kts | 51° |
| 2026-05-08 09:10 | 9.75164 | 100.55247 | 31517 ft | 476 kts | 51° |
| 2026-05-08 09:11 | 9.77259 | 100.57826 | 31706 ft | 475 kts | 51° |
| 2026-05-08 09:11 | 9.79362 | 100.60428 | 31913 ft | 474 kts | 51° |
| 2026-05-08 09:11 | 9.81447 | 100.63012 | 32112 ft | 473 kts | 51° |
| 2026-05-08 09:11 | 9.83530 | 100.65593 | 32318 ft | 472 kts | 51° |
| 2026-05-08 09:12 | 9.85612 | 100.68172 | 32512 ft | 472 kts | 51° |
| 2026-05-08 09:12 | 9.87678 | 100.70727 | 32717 ft | 471 kts | 51° |
| 2026-05-08 09:12 | 9.91833 | 100.75868 | 32838 ft | 469 kts | 51° |
| 2026-05-08 09:13 | 9.95969 | 100.80985 | 32830 ft | 468 kts | 51° |
| 2026-05-08 09:13 | 10.00128 | 100.86130 | 32824 ft | 469 kts | 51° |
| 2026-05-08 09:14 | 10.04313 | 100.91317 | 32829 ft | 468 kts | 51° |
| 2026-05-08 09:14 | 10.08378 | 100.96357 | 32843 ft | 468 kts | 51° |
| 2026-05-08 09:15 | 10.10449 | 100.98923 | 32984 ft | 469 kts | 51° |
| 2026-05-08 09:15 | 10.12514 | 101.01484 | 33175 ft | 468 kts | 51° |
| 2026-05-08 09:15 | 10.14573 | 101.04041 | 33376 ft | 468 kts | 51° |
| 2026-05-08 09:15 | 10.16609 | 101.06570 | 33566 ft | 467 kts | 51° |
| 2026-05-08 09:16 | 10.18682 | 101.09142 | 33771 ft | 466 kts | 51° |
| 2026-05-08 09:16 | 10.20731 | 101.11679 | 33950 ft | 465 kts | 51° |
| 2026-05-08 09:16 | 10.22698 | 101.14151 | 34475 ft | 442 kts | 52° |
| 2026-05-08 09:16 | 10.24561 | 101.16587 | 34726 ft | 430 kts | 53° |
| 2026-05-08 09:17 | 10.28191 | 101.21459 | 34838 ft | 434 kts | 53° |
| 2026-05-08 09:17 | 10.31847 | 101.26345 | 34831 ft | 428 kts | 53° |
| 2026-05-08 09:18 | 10.35482 | 101.31171 | 34832 ft | 429 kts | 53° |
| 2026-05-08 09:18 | 10.39068 | 101.35933 | 34829 ft | 423 kts | 53° |
| 2026-05-08 09:19 | 10.42590 | 101.40634 | 34831 ft | 407 kts | 53° |
| 2026-05-08 09:19 | 10.45407 | 101.44383 | 34830 ft | 394 kts | 53° |
| 2026-05-08 09:20 | 10.49186 | 101.49401 | 34830 ft | 376 kts | 53° |
| 2026-05-08 09:20 | 10.51795 | 101.52859 | 34830 ft | 362 kts | 53° |
| 2026-05-08 09:21 | 10.54801 | 101.56868 | 34575 ft | 355 kts | 53° |
| 2026-05-08 09:22 | 10.63698 | 101.69009 | 33166 ft | 352 kts | 57° |
| 2026-05-08 09:23 | 10.65085 | 101.71087 | 32934 ft | 352 kts | 53° |
| 2026-05-08 09:23 | 10.66571 | 101.73019 | 32731 ft | 351 kts | 51° |
| 2026-05-08 09:23 | 10.68110 | 101.74931 | 32595 ft | 348 kts | 50° |
| 2026-05-08 09:23 | 10.69656 | 101.76788 | 32445 ft | 345 kts | 50° |
| 2026-05-08 09:24 | 10.71205 | 101.78667 | 32208 ft | 346 kts | 52° |
| 2026-05-08 09:24 | 10.72705 | 101.80617 | 31959 ft | 346 kts | 53° |
| 2026-05-08 09:24 | 10.74106 | 101.82567 | 31784 ft | 345 kts | 55° |
| 2026-05-08 09:24 | 10.75459 | 101.84592 | 31657 ft | 342 kts | 57° |
| 2026-05-08 09:25 | 10.76716 | 101.86616 | 31518 ft | 340 kts | 59° |
| 2026-05-08 09:25 | 10.77927 | 101.88723 | 31308 ft | 340 kts | 61° |
| 2026-05-08 09:25 | 10.79171 | 101.90743 | 31122 ft | 338 kts | 55° |
| 2026-05-08 09:25 | 10.80584 | 101.92511 | 31535 ft | 313 kts | 48° |
| 2026-05-08 09:26 | 10.82049 | 101.94073 | 31495 ft | 301 kts | 46° |
| 2026-05-08 09:26 | 10.83499 | 101.95579 | 31489 ft | 287 kts | 47° |
| 2026-05-08 09:26 | 10.84833 | 101.97041 | 31468 ft | 274 kts | 49° |
| 2026-05-08 09:26 | 10.86061 | 101.98489 | 31180 ft | 273 kts | 51° |
| 2026-05-08 09:27 | 10.87289 | 102.00048 | 30649 ft | 288 kts | 52° |
| 2026-05-08 09:27 | 10.88538 | 102.01714 | 30625 ft | 304 kts | 53° |
| 2026-05-08 09:27 | 10.89856 | 102.03451 | 30631 ft | 322 kts | 53° |
| 2026-05-08 09:27 | 10.91260 | 102.05301 | 30629 ft | 339 kts | 52° |
| 2026-05-08 09:28 | 10.92733 | 102.07250 | 30634 ft | 356 kts | 52° |
| 2026-05-08 09:28 | 10.94297 | 102.09327 | 30623 ft | 373 kts | 53° |
| 2026-05-08 09:28 | 10.95905 | 102.11472 | 30625 ft | 389 kts | 53° |
| 2026-05-08 09:28 | 10.97574 | 102.13704 | 30625 ft | 404 kts | 53° |
| 2026-05-08 09:29 | 10.99302 | 102.16014 | 30624 ft | 418 kts | 53° |
| 2026-05-08 09:29 | 11.01099 | 102.18416 | 30618 ft | 432 kts | 53° |
| 2026-05-08 09:29 | 11.02946 | 102.20886 | 30624 ft | 445 kts | 53° |
| 2026-05-08 09:29 | 11.04847 | 102.23424 | 30620 ft | 457 kts | 53° |
| 2026-05-08 09:30 | 11.06806 | 102.26042 | 30628 ft | 468 kts | 53° |
| 2026-05-08 09:30 | 11.10746 | 102.31350 | 30621 ft | 465 kts | 53° |
| 2026-05-08 09:30 | 11.12627 | 102.33906 | 30630 ft | 441 kts | 53° |
| 2026-05-08 09:31 | 11.14457 | 102.36380 | 30629 ft | 428 kts | 53° |
| 2026-05-08 09:31 | 11.18143 | 102.41320 | 30627 ft | 452 kts | 53° |
| 2026-05-08 09:31 | 11.20095 | 102.43950 | 30631 ft | 464 kts | 53° |
| 2026-05-08 09:32 | 11.22051 | 102.46595 | 30624 ft | 473 kts | 53° |
| 2026-05-08 09:32 | 11.24034 | 102.49275 | 30629 ft | 477 kts | 53° |
| 2026-05-08 09:33 | 11.24980 | 102.50553 | 30625 ft | 478 kts | 53° |
| 2026-05-08 09:33 | 11.27264 | 102.53635 | 30647 ft | 479 kts | 53° |
| 2026-05-08 09:34 | 11.31276 | 102.59060 | 30630 ft | 479 kts | 53° |
| 2026-05-08 09:34 | 11.35273 | 102.64478 | 30620 ft | 479 kts | 53° |
| 2026-05-08 09:35 | 11.39089 | 102.69637 | 30622 ft | 479 kts | 53° |
| 2026-05-08 09:35 | 11.43113 | 102.75060 | 30626 ft | 479 kts | 53° |
| 2026-05-08 09:36 | 11.47118 | 102.80485 | 30626 ft | 478 kts | 53° |
| 2026-05-08 09:36 | 11.51113 | 102.85918 | 30631 ft | 478 kts | 53° |
| 2026-05-08 09:37 | 11.55111 | 102.91346 | 30629 ft | 478 kts | 53° |
| 2026-05-08 09:37 | 11.59108 | 102.96751 | 30636 ft | 478 kts | 53° |
| 2026-05-08 09:38 | 11.63172 | 103.02120 | 30634 ft | 478 kts | 50° |
| 2026-05-08 09:38 | 11.67569 | 103.07216 | 30639 ft | 478 kts | 47° |
| 2026-05-08 09:39 | 11.72109 | 103.12210 | 30644 ft | 478 kts | 47° |
| 2026-05-08 09:39 | 11.76558 | 103.17214 | 30656 ft | 476 kts | 49° |
| 2026-05-08 09:40 | 11.80942 | 103.22273 | 30659 ft | 476 kts | 49° |
| 2026-05-08 09:40 | 11.85341 | 103.27371 | 30666 ft | 476 kts | 49° |
| 2026-05-08 09:41 | 11.89726 | 103.32426 | 30676 ft | 476 kts | 49° |
| 2026-05-08 09:41 | 11.94121 | 103.37480 | 30670 ft | 476 kts | 49° |
| 2026-05-08 09:42 | 11.98512 | 103.42532 | 30672 ft | 476 kts | 49° |
| 2026-05-08 09:42 | 12.02904 | 103.47593 | 30671 ft | 476 kts | 49° |
| 2026-05-08 09:43 | 12.07295 | 103.52651 | 30669 ft | 476 kts | 49° |
| 2026-05-08 09:43 | 12.11663 | 103.57695 | 30667 ft | 476 kts | 49° |
| 2026-05-08 09:44 | 12.16084 | 103.62796 | 30693 ft | 478 kts | 49° |
| 2026-05-08 09:44 | 12.18310 | 103.65359 | 30882 ft | 476 kts | 49° |
| 2026-05-08 09:44 | 12.20494 | 103.67876 | 31076 ft | 475 kts | 49° |
| 2026-05-08 09:44 | 12.22659 | 103.70377 | 31263 ft | 474 kts | 49° |
| 2026-05-08 09:45 | 12.24871 | 103.72912 | 31432 ft | 474 kts | 48° |
| 2026-05-08 09:45 | 12.27147 | 103.75437 | 31558 ft | 475 kts | 47° |
| 2026-05-08 09:45 | 12.29373 | 103.77849 | 31659 ft | 475 kts | 46° |
| 2026-05-08 09:45 | 12.31682 | 103.80323 | 31774 ft | 476 kts | 46° |
| 2026-05-08 09:46 | 12.33965 | 103.82768 | 31890 ft | 477 kts | 46° |
| 2026-05-08 09:46 | 12.36245 | 103.85229 | 32010 ft | 477 kts | 47° |
| 2026-05-08 09:46 | 12.38523 | 103.87705 | 32127 ft | 477 kts | 47° |
| 2026-05-08 09:46 | 12.40862 | 103.90261 | 32251 ft | 478 kts | 47° |
| 2026-05-08 09:47 | 12.43080 | 103.92690 | 32358 ft | 478 kts | 47° |
| 2026-05-08 09:47 | 12.45372 | 103.95203 | 32480 ft | 479 kts | 47° |
| 2026-05-08 09:47 | 12.47163 | 103.97165 | 32585 ft | 479 kts | 47° |
| 2026-05-08 09:47 | 12.49922 | 104.00180 | 32725 ft | 479 kts | 47° |
| 2026-05-08 09:48 | 12.52229 | 104.02695 | 32850 ft | 479 kts | 47° |
| 2026-05-08 09:48 | 12.54503 | 104.05178 | 32970 ft | 479 kts | 47° |
| 2026-05-08 09:48 | 12.56012 | 104.06830 | 33051 ft | 479 kts | 47° |
| 2026-05-08 09:48 | 12.59053 | 104.10164 | 33218 ft | 479 kts | 47° |
| 2026-05-08 09:49 | 12.60589 | 104.11849 | 33308 ft | 479 kts | 47° |
| 2026-05-08 09:49 | 12.62871 | 104.14351 | 33427 ft | 479 kts | 47° |
| 2026-05-08 09:49 | 12.65138 | 104.16830 | 33555 ft | 479 kts | 47° |
| 2026-05-08 09:49 | 12.67443 | 104.19349 | 33711 ft | 478 kts | 47° |
| 2026-05-08 09:50 | 12.69722 | 104.21845 | 33797 ft | 479 kts | 47° |
| 2026-05-08 09:50 | 12.73942 | 104.26479 | 33815 ft | 475 kts | 47° |
| 2026-05-08 09:51 | 12.78942 | 104.31962 | 33817 ft | 475 kts | 48° |
| 2026-05-08 09:51 | 12.83351 | 104.36792 | 33811 ft | 475 kts | 48° |
| 2026-05-08 09:52 | 12.87954 | 104.41848 | 33811 ft | 475 kts | 48° |
| 2026-05-08 09:52 | 12.92391 | 104.46725 | 33813 ft | 475 kts | 48° |
| 2026-05-08 09:53 | 12.96886 | 104.51667 | 33812 ft | 476 kts | 48° |
| 2026-05-08 09:53 | 13.01411 | 104.56639 | 33816 ft | 476 kts | 48° |
| 2026-05-08 09:54 | 13.05926 | 104.61606 | 33821 ft | 476 kts | 48° |
| 2026-05-08 09:54 | 13.10442 | 104.66578 | 33818 ft | 477 kts | 48° |
| 2026-05-08 09:55 | 13.14972 | 104.71569 | 33812 ft | 477 kts | 48° |
| 2026-05-08 09:55 | 13.19529 | 104.76592 | 33813 ft | 478 kts | 48° |
| 2026-05-08 09:56 | 13.24058 | 104.81591 | 33819 ft | 478 kts | 48° |
| 2026-05-08 09:56 | 13.28576 | 104.86587 | 33817 ft | 478 kts | 48° |
| 2026-05-08 09:57 | 13.35373 | 104.94085 | 33822 ft | 478 kts | 47° |
| 2026-05-08 09:57 | 13.39908 | 104.99096 | 33828 ft | 478 kts | 47° |
| 2026-05-08 09:58 | 13.44442 | 105.04113 | 33820 ft | 479 kts | 47° |
| 2026-05-08 09:58 | 13.48973 | 105.09119 | 33822 ft | 479 kts | 47° |
| 2026-05-08 09:59 | 13.53524 | 105.14144 | 33818 ft | 480 kts | 47° |
| 2026-05-08 09:59 | 13.58061 | 105.19164 | 33819 ft | 480 kts | 47° |
| 2026-05-08 10:00 | 13.62595 | 105.24201 | 33827 ft | 480 kts | 47° |
| 2026-05-08 10:00 | 13.67131 | 105.29240 | 33819 ft | 480 kts | 47° |
| 2026-05-08 10:01 | 13.71655 | 105.34261 | 33833 ft | 479 kts | 47° |
| 2026-05-08 10:01 | 13.76190 | 105.39291 | 33835 ft | 479 kts | 47° |
| 2026-05-08 10:02 | 13.80848 | 105.44192 | 33832 ft | 478 kts | 40° |
| 2026-05-08 10:02 | 13.85935 | 105.48610 | 33837 ft | 478 kts | 40° |
| 2026-05-08 10:03 | 13.90999 | 105.53020 | 33834 ft | 478 kts | 40° |
| 2026-05-08 10:03 | 13.96074 | 105.57456 | 33838 ft | 478 kts | 40° |
| 2026-05-08 10:04 | 14.01168 | 105.61897 | 33842 ft | 477 kts | 40° |
| 2026-05-08 10:04 | 14.06209 | 105.66288 | 33833 ft | 478 kts | 39° |
| 2026-05-08 10:05 | 14.08748 | 105.68499 | 33711 ft | 476 kts | 39° |
| 2026-05-08 10:05 | 14.11290 | 105.70718 | 33927 ft | 473 kts | 39° |
| 2026-05-08 10:05 | 14.13796 | 105.72919 | 34152 ft | 470 kts | 40° |
| 2026-05-08 10:05 | 14.16238 | 105.75074 | 34350 ft | 468 kts | 40° |
| 2026-05-08 10:06 | 14.18714 | 105.77268 | 34453 ft | 468 kts | 40° |
| 2026-05-08 10:06 | 14.21209 | 105.79483 | 34575 ft | 468 kts | 40° |
| 2026-05-08 10:06 | 14.23670 | 105.81667 | 34692 ft | 468 kts | 40° |
| 2026-05-08 10:06 | 14.26148 | 105.83858 | 34814 ft | 468 kts | 39° |
| 2026-05-08 10:07 | 14.31100 | 105.88225 | 34828 ft | 473 kts | 39° |
| 2026-05-08 10:07 | 14.36109 | 105.92654 | 34821 ft | 475 kts | 40° |
| 2026-05-08 10:08 | 14.41135 | 105.97098 | 34826 ft | 476 kts | 39° |
| 2026-05-08 10:08 | 14.46166 | 106.01559 | 34826 ft | 476 kts | 39° |
| 2026-05-08 10:09 | 14.51190 | 106.06006 | 34829 ft | 475 kts | 39° |
| 2026-05-08 10:09 | 14.56204 | 106.10448 | 34830 ft | 476 kts | 39° |
| 2026-05-08 10:10 | 14.61215 | 106.14900 | 34834 ft | 476 kts | 39° |
| 2026-05-08 10:10 | 14.66250 | 106.19366 | 34843 ft | 476 kts | 39° |
| 2026-05-08 10:11 | 14.71270 | 106.23814 | 34833 ft | 474 kts | 39° |
| 2026-05-08 10:11 | 14.76256 | 106.28244 | 34825 ft | 473 kts | 39° |
| 2026-05-08 10:12 | 14.81241 | 106.32679 | 34836 ft | 477 kts | 39° |
| 2026-05-08 10:12 | 14.86288 | 106.37166 | 34834 ft | 476 kts | 39° |
| 2026-05-08 10:13 | 14.91293 | 106.41629 | 34855 ft | 475 kts | 39° |
| 2026-05-08 10:13 | 14.96321 | 106.46124 | 34857 ft | 475 kts | 39° |
| 2026-05-08 10:14 | 15.00512 | 106.49872 | 34847 ft | 475 kts | 39° |
| 2026-05-08 10:14 | 15.05548 | 106.54376 | 34861 ft | 476 kts | 39° |
| 2026-05-08 10:15 | 15.11365 | 106.59590 | 34867 ft | 477 kts | 39° |
| 2026-05-08 10:15 | 15.15576 | 106.63367 | 34858 ft | 477 kts | 39° |
| 2026-05-08 10:16 | 15.20609 | 106.67876 | 34861 ft | 477 kts | 39° |